sensor_id;sensor_type;location;lat;lon;timestamp;P1;durP1;ratioP1;P2;durP2;ratioP2
27758;SDS011;15148;48.972;12.794;2023-07-20T00:04:12;3.47;;;3.00;;
27758;SDS011;15148;48.972;12.794;2023-07-20T00:09:15;3.40;;;3.10;;
27758;SDS011;15148;48.972;12.794;2023-07-20T00:14:17;4.15;;;3.40;;
27758;SDS011;15148;48.972;12.794;2023-07-20T00:19:20;5.97;;;3.05;;
27758;SDS011;15148;48.972;12.794;2023-07-20T00:24:24;3.90;;;2.88;;
27758;SDS011;15148;48.972;12.794;2023-07-20T00:29:26;3.85;;;3.13;;
27758;SDS011;15148;48.972;12.794;2023-07-20T00:34:28;4.15;;;3.30;;
27758;SDS011;15148;48.972;12.794;2023-07-20T00:39:30;3.55;;;3.25;;
27758;SDS011;15148;48.972;12.794;2023-07-20T00:44:32;4.50;;;3.20;;
27758;SDS011;15148;48.972;12.794;2023-07-20T00:49:34;5.53;;;3.10;;
27758;SDS011;15148;48.972;12.794;2023-07-20T00:54:38;3.80;;;3.50;;
27758;SDS011;15148;48.972;12.794;2023-07-20T00:59:40;5.15;;;3.65;;
27758;SDS011;15148;48.972;12.794;2023-07-20T01:04:41;6.85;;;3.60;;
27758;SDS011;15148;48.972;12.794;2023-07-20T01:09:45;6.85;;;3.40;;
27758;SDS011;15148;48.972;12.794;2023-07-20T01:14:58;4.15;;;3.25;;
27758;SDS011;15148;48.972;12.794;2023-07-20T01:20:00;3.58;;;3.20;;
27758;SDS011;15148;48.972;12.794;2023-07-20T01:30:50;3.47;;;3.17;;
27758;SDS011;15148;48.972;12.794;2023-07-20T01:36:14;4.80;;;3.50;;
27758;SDS011;15148;48.972;12.794;2023-07-20T01:41:19;3.88;;;3.40;;
27758;SDS011;15148;48.972;12.794;2023-07-20T01:46:22;3.30;;;3.00;;
27758;SDS011;15148;48.972;12.794;2023-07-20T01:51:24;4.68;;;3.33;;
27758;SDS011;15148;48.972;12.794;2023-07-20T01:56:26;5.03;;;3.60;;
27758;SDS011;15148;48.972;12.794;2023-07-20T02:01:28;4.75;;;3.63;;
27758;SDS011;15148;48.972;12.794;2023-07-20T02:06:31;3.35;;;3.05;;
27758;SDS011;15148;48.972;12.794;2023-07-20T02:11:33;4.25;;;3.58;;
27758;SDS011;15148;48.972;12.794;2023-07-20T02:16:35;3.47;;;3.05;;
27758;SDS011;15148;48.972;12.794;2023-07-20T02:21:37;5.47;;;3.70;;
27758;SDS011;15148;48.972;12.794;2023-07-20T02:26:40;5.63;;;3.70;;
27758;SDS011;15148;48.972;12.794;2023-07-20T02:31:42;4.30;;;3.30;;
27758;SDS011;15148;48.972;12.794;2023-07-20T02:36:44;4.07;;;3.28;;
27758;SDS011;15148;48.972;12.794;2023-07-20T02:41:48;3.97;;;3.60;;
27758;SDS011;15148;48.972;12.794;2023-07-20T02:46:50;5.75;;;3.78;;
27758;SDS011;15148;48.972;12.794;2023-07-20T02:51:52;6.47;;;3.35;;
27758;SDS011;15148;48.972;12.794;2023-07-20T02:56:54;4.07;;;3.65;;
27758;SDS011;15148;48.972;12.794;2023-07-20T03:01:56;3.67;;;3.15;;
27758;SDS011;15148;48.972;12.794;2023-07-20T03:06:59;4.93;;;3.70;;
27758;SDS011;15148;48.972;12.794;2023-07-20T03:12:02;6.80;;;3.80;;
27758;SDS011;15148;48.972;12.794;2023-07-20T03:17:06;6.05;;;3.67;;
27758;SDS011;15148;48.972;12.794;2023-07-20T03:22:09;4.68;;;3.83;;
27758;SDS011;15148;48.972;12.794;2023-07-20T03:27:12;3.63;;;3.30;;
27758;SDS011;15148;48.972;12.794;2023-07-20T03:32:14;4.65;;;3.35;;
27758;SDS011;15148;48.972;12.794;2023-07-20T03:37:16;3.72;;;3.40;;
27758;SDS011;15148;48.972;12.794;2023-07-20T03:42:18;4.47;;;3.53;;
27758;SDS011;15148;48.972;12.794;2023-07-20T03:47:20;4.07;;;3.63;;
27758;SDS011;15148;48.972;12.794;2023-07-20T03:52:22;5.25;;;3.33;;
27758;SDS011;15148;48.972;12.794;2023-07-20T03:57:24;5.20;;;3.42;;
27758;SDS011;15148;48.972;12.794;2023-07-20T04:02:26;4.47;;;3.50;;
27758;SDS011;15148;48.972;12.794;2023-07-20T04:07:28;4.07;;;3.38;;
27758;SDS011;15148;48.972;12.794;2023-07-20T04:12:30;5.50;;;4.13;;
27758;SDS011;15148;48.972;12.794;2023-07-20T04:17:32;4.70;;;3.20;;
27758;SDS011;15148;48.972;12.794;2023-07-20T04:22:34;4.88;;;3.30;;
27758;SDS011;15148;48.972;12.794;2023-07-20T04:27:37;3.40;;;3.10;;
27758;SDS011;15148;48.972;12.794;2023-07-20T04:32:39;3.75;;;3.45;;
27758;SDS011;15148;48.972;12.794;2023-07-20T04:37:48;4.13;;;3.65;;
27758;SDS011;15148;48.972;12.794;2023-07-20T04:42:53;4.03;;;3.63;;
27758;SDS011;15148;48.972;12.794;2023-07-20T04:47:55;4.22;;;3.28;;
27758;SDS011;15148;48.972;12.794;2023-07-20T04:52:58;4.20;;;3.78;;
27758;SDS011;15148;48.972;12.794;2023-07-20T04:58:00;4.93;;;3.90;;
27758;SDS011;15148;48.972;12.794;2023-07-20T05:03:02;4.07;;;3.65;;
27758;SDS011;15148;48.972;12.794;2023-07-20T05:08:08;4.90;;;4.07;;
27758;SDS011;15148;48.972;12.794;2023-07-20T05:13:11;9.57;;;3.92;;
27758;SDS011;15148;48.972;12.794;2023-07-20T05:18:13;5.65;;;3.92;;
27758;SDS011;15148;48.972;12.794;2023-07-20T05:23:21;4.03;;;3.60;;
27758;SDS011;15148;48.972;12.794;2023-07-20T05:28:24;5.18;;;4.18;;
27758;SDS011;15148;48.972;12.794;2023-07-20T05:33:29;5.38;;;3.97;;
27758;SDS011;15148;48.972;12.794;2023-07-20T05:38:31;4.63;;;3.60;;
27758;SDS011;15148;48.972;12.794;2023-07-20T05:43:33;4.45;;;3.53;;
27758;SDS011;15148;48.972;12.794;2023-07-20T05:48:34;4.53;;;3.88;;
27758;SDS011;15148;48.972;12.794;2023-07-20T05:53:37;5.88;;;4.22;;
27758;SDS011;15148;48.972;12.794;2023-07-20T05:58:39;8.27;;;4.00;;
27758;SDS011;15148;48.972;12.794;2023-07-20T06:03:41;10.35;;;4.82;;
27758;SDS011;15148;48.972;12.794;2023-07-20T06:08:43;6.80;;;4.57;;
27758;SDS011;15148;48.972;12.794;2023-07-20T06:13:45;8.43;;;3.90;;
27758;SDS011;15148;48.972;12.794;2023-07-20T06:18:47;6.75;;;4.22;;
27758;SDS011;15148;48.972;12.794;2023-07-20T06:23:49;8.73;;;4.28;;
27758;SDS011;15148;48.972;12.794;2023-07-20T06:28:50;6.55;;;4.53;;
27758;SDS011;15148;48.972;12.794;2023-07-20T06:33:52;4.82;;;3.50;;
27758;SDS011;15148;48.972;12.794;2023-07-20T06:38:55;7.97;;;4.47;;
27758;SDS011;15148;48.972;12.794;2023-07-20T06:44:00;7.32;;;4.40;;
27758;SDS011;15148;48.972;12.794;2023-07-20T06:49:02;9.65;;;4.45;;
27758;SDS011;15148;48.972;12.794;2023-07-20T06:54:07;9.68;;;3.97;;
27758;SDS011;15148;48.972;12.794;2023-07-20T06:59:09;6.32;;;4.32;;
27758;SDS011;15148;48.972;12.794;2023-07-20T07:04:10;7.47;;;4.07;;
27758;SDS011;15148;48.972;12.794;2023-07-20T07:09:12;7.30;;;4.40;;
27758;SDS011;15148;48.972;12.794;2023-07-20T07:14:15;5.78;;;4.05;;
27758;SDS011;15148;48.972;12.794;2023-07-20T07:19:17;7.72;;;4.35;;
27758;SDS011;15148;48.972;12.794;2023-07-20T07:24:18;6.75;;;4.07;;
27758;SDS011;15148;48.972;12.794;2023-07-20T07:29:20;7.47;;;4.68;;
27758;SDS011;15148;48.972;12.794;2023-07-20T07:34:22;11.98;;;4.60;;
27758;SDS011;15148;48.972;12.794;2023-07-20T07:39:24;5.95;;;4.40;;
27758;SDS011;15148;48.972;12.794;2023-07-20T07:44:35;6.63;;;4.80;;
27758;SDS011;15148;48.972;12.794;2023-07-20T07:49:37;5.35;;;4.32;;
27758;SDS011;15148;48.972;12.794;2023-07-20T07:54:39;4.80;;;3.97;;
27758;SDS011;15148;48.972;12.794;2023-07-20T07:59:41;5.13;;;3.72;;
27758;SDS011;15148;48.972;12.794;2023-07-20T08:04:43;6.40;;;4.47;;
27758;SDS011;15148;48.972;12.794;2023-07-20T08:09:45;4.30;;;3.25;;
27758;SDS011;15148;48.972;12.794;2023-07-20T08:14:47;6.72;;;3.45;;
27758;SDS011;15148;48.972;12.794;2023-07-20T08:19:50;9.10;;;3.83;;
27758;SDS011;15148;48.972;12.794;2023-07-20T08:24:51;6.22;;;3.42;;
27758;SDS011;15148;48.972;12.794;2023-07-20T08:29:53;9.05;;;3.33;;
27758;SDS011;15148;48.972;12.794;2023-07-20T08:34:55;7.15;;;2.92;;
27758;SDS011;15148;48.972;12.794;2023-07-20T08:39:58;6.45;;;3.10;;
27758;SDS011;15148;48.972;12.794;2023-07-20T08:45:00;3.15;;;2.78;;
27758;SDS011;15148;48.972;12.794;2023-07-20T08:50:02;6.22;;;3.10;;
27758;SDS011;15148;48.972;12.794;2023-07-20T08:55:08;7.40;;;3.55;;
27758;SDS011;15148;48.972;12.794;2023-07-20T09:00:11;5.43;;;3.22;;
27758;SDS011;15148;48.972;12.794;2023-07-20T09:05:14;4.07;;;3.05;;
27758;SDS011;15148;48.972;12.794;2023-07-20T09:10:16;7.72;;;3.85;;
27758;SDS011;15148;48.972;12.794;2023-07-20T09:15:18;5.88;;;3.20;;
27758;SDS011;15148;48.972;12.794;2023-07-20T09:20:21;7.93;;;3.50;;
27758;SDS011;15148;48.972;12.794;2023-07-20T09:25:24;3.85;;;3.00;;
27758;SDS011;15148;48.972;12.794;2023-07-20T09:30:31;4.70;;;3.30;;
27758;SDS011;15148;48.972;12.794;2023-07-20T09:35:34;5.45;;;3.20;;
27758;SDS011;15148;48.972;12.794;2023-07-20T09:40:42;5.88;;;2.40;;
27758;SDS011;15148;48.972;12.794;2023-07-20T09:45:48;3.00;;;2.58;;
27758;SDS011;15148;48.972;12.794;2023-07-20T09:50:53;4.97;;;2.80;;
27758;SDS011;15148;48.972;12.794;2023-07-20T09:55:57;4.60;;;2.60;;
27758;SDS011;15148;48.972;12.794;2023-07-20T10:01:01;3.70;;;2.50;;
27758;SDS011;15148;48.972;12.794;2023-07-20T10:06:08;3.67;;;2.80;;
27758;SDS011;15148;48.972;12.794;2023-07-20T10:11:15;3.75;;;2.88;;
27758;SDS011;15148;48.972;12.794;2023-07-20T10:21:57;6.65;;;2.70;;
27758;SDS011;15148;48.972;12.794;2023-07-20T10:27:05;4.57;;;2.40;;
27758;SDS011;15148;48.972;12.794;2023-07-20T10:32:08;7.40;;;3.00;;
27758;SDS011;15148;48.972;12.794;2023-07-20T10:37:11;2.85;;;2.40;;
27758;SDS011;15148;48.972;12.794;2023-07-20T10:42:55;2.70;;;2.25;;
27758;SDS011;15148;48.972;12.794;2023-07-20T10:48:03;2.85;;;2.15;;
27758;SDS011;15148;48.972;12.794;2023-07-20T10:53:09;2.90;;;2.10;;
27758;SDS011;15148;48.972;12.794;2023-07-20T10:58:18;2.72;;;2.25;;
27758;SDS011;15148;48.972;12.794;2023-07-20T11:03:27;4.80;;;2.40;;
27758;SDS011;15148;48.972;12.794;2023-07-20T11:08:39;3.67;;;2.40;;
27758;SDS011;15148;48.972;12.794;2023-07-20T11:14:01;3.85;;;2.50;;
27758;SDS011;15148;48.972;12.794;2023-07-20T11:19:04;2.70;;;1.83;;
27758;SDS011;15148;48.972;12.794;2023-07-20T11:24:07;2.00;;;1.70;;
27758;SDS011;15148;48.972;12.794;2023-07-20T11:29:11;4.20;;;1.73;;
27758;SDS011;15148;48.972;12.794;2023-07-20T11:34:31;2.92;;;1.70;;
27758;SDS011;15148;48.972;12.794;2023-07-20T11:39:34;3.92;;;2.20;;
27758;SDS011;15148;48.972;12.794;2023-07-20T11:44:37;2.92;;;1.92;;
27758;SDS011;15148;48.972;12.794;2023-07-20T11:49:40;7.70;;;6.18;;
27758;SDS011;15148;48.972;12.794;2023-07-20T11:54:43;4.85;;;2.08;;
27758;SDS011;15148;48.972;12.794;2023-07-20T11:59:53;3.28;;;2.13;;
27758;SDS011;15148;48.972;12.794;2023-07-20T12:04:58;4.18;;;1.85;;
27758;SDS011;15148;48.972;12.794;2023-07-20T12:10:07;2.30;;;1.80;;
27758;SDS011;15148;48.972;12.794;2023-07-20T12:15:15;2.30;;;1.63;;
27758;SDS011;15148;48.972;12.794;2023-07-20T12:20:29;3.70;;;1.90;;
27758;SDS011;15148;48.972;12.794;2023-07-20T12:30:41;2.57;;;2.17;;
27758;SDS011;15148;48.972;12.794;2023-07-20T12:35:43;3.58;;;2.08;;
27758;SDS011;15148;48.972;12.794;2023-07-20T12:40:45;2.08;;;1.55;;
27758;SDS011;15148;48.972;12.794;2023-07-20T12:45:47;3.13;;;1.88;;
27758;SDS011;15148;48.972;12.794;2023-07-20T12:50:49;3.38;;;2.17;;
27758;SDS011;15148;48.972;12.794;2023-07-20T12:55:51;4.15;;;1.90;;
27758;SDS011;15148;48.972;12.794;2023-07-20T13:00:53;2.40;;;1.75;;
27758;SDS011;15148;48.972;12.794;2023-07-20T13:05:55;1.70;;;1.60;;
27758;SDS011;15148;48.972;12.794;2023-07-20T13:11:00;3.08;;;2.05;;
27758;SDS011;15148;48.972;12.794;2023-07-20T13:16:02;2.45;;;1.70;;
27758;SDS011;15148;48.972;12.794;2023-07-20T13:21:04;2.42;;;1.75;;
27758;SDS011;15148;48.972;12.794;2023-07-20T13:26:13;2.08;;;1.77;;
27758;SDS011;15148;48.972;12.794;2023-07-20T13:31:16;3.25;;;1.60;;
27758;SDS011;15148;48.972;12.794;2023-07-20T13:36:19;5.25;;;2.05;;
27758;SDS011;15148;48.972;12.794;2023-07-20T13:41:26;3.25;;;1.92;;
27758;SDS011;15148;48.972;12.794;2023-07-20T13:46:30;3.63;;;2.00;;
27758;SDS011;15148;48.972;12.794;2023-07-20T13:51:35;2.75;;;2.15;;
27758;SDS011;15148;48.972;12.794;2023-07-20T13:56:37;2.60;;;2.08;;
27758;SDS011;15148;48.972;12.794;2023-07-20T14:01:39;2.53;;;1.95;;
27758;SDS011;15148;48.972;12.794;2023-07-20T14:06:42;2.78;;;1.77;;
27758;SDS011;15148;48.972;12.794;2023-07-20T14:11:44;1.92;;;1.75;;
27758;SDS011;15148;48.972;12.794;2023-07-20T14:16:49;3.70;;;2.17;;
27758;SDS011;15148;48.972;12.794;2023-07-20T14:21:51;4.82;;;2.42;;
27758;SDS011;15148;48.972;12.794;2023-07-20T14:26:53;2.17;;;1.80;;
27758;SDS011;15148;48.972;12.794;2023-07-20T14:31:55;2.13;;;1.92;;
27758;SDS011;15148;48.972;12.794;2023-07-20T14:36:59;2.95;;;2.38;;
27758;SDS011;15148;48.972;12.794;2023-07-20T14:42:01;2.45;;;2.05;;
27758;SDS011;15148;48.972;12.794;2023-07-20T14:47:05;4.07;;;2.15;;
27758;SDS011;15148;48.972;12.794;2023-07-20T14:52:15;2.63;;;1.63;;
27758;SDS011;15148;48.972;12.794;2023-07-20T14:57:18;4.22;;;2.00;;
27758;SDS011;15148;48.972;12.794;2023-07-20T15:02:22;3.63;;;2.00;;
27758;SDS011;15148;48.972;12.794;2023-07-20T15:07:24;2.40;;;1.80;;
27758;SDS011;15148;48.972;12.794;2023-07-20T15:12:26;3.60;;;1.90;;
27758;SDS011;15148;48.972;12.794;2023-07-20T15:17:28;3.08;;;1.90;;
27758;SDS011;15148;48.972;12.794;2023-07-20T15:22:30;2.92;;;1.92;;
27758;SDS011;15148;48.972;12.794;2023-07-20T15:27:37;4.28;;;2.13;;
27758;SDS011;15148;48.972;12.794;2023-07-20T15:32:39;2.90;;;2.00;;
27758;SDS011;15148;48.972;12.794;2023-07-20T15:37:46;3.45;;;1.48;;
27758;SDS011;15148;48.972;12.794;2023-07-20T15:42:48;3.78;;;1.55;;
27758;SDS011;15148;48.972;12.794;2023-07-20T15:47:53;1.90;;;1.80;;
27758;SDS011;15148;48.972;12.794;2023-07-20T15:52:56;3.35;;;2.20;;
27758;SDS011;15148;48.972;12.794;2023-07-20T15:57:58;3.60;;;2.00;;
27758;SDS011;15148;48.972;12.794;2023-07-20T16:03:00;4.88;;;1.75;;
27758;SDS011;15148;48.972;12.794;2023-07-20T16:08:02;1.88;;;1.77;;
27758;SDS011;15148;48.972;12.794;2023-07-20T16:13:05;2.38;;;1.80;;
27758;SDS011;15148;48.972;12.794;2023-07-20T16:18:07;1.90;;;1.80;;
27758;SDS011;15148;48.972;12.794;2023-07-20T16:23:09;3.45;;;1.63;;
27758;SDS011;15148;48.972;12.794;2023-07-20T16:28:11;2.95;;;1.60;;
27758;SDS011;15148;48.972;12.794;2023-07-20T16:33:13;2.63;;;1.80;;
27758;SDS011;15148;48.972;12.794;2023-07-20T16:38:15;2.58;;;1.90;;
27758;SDS011;15148;48.972;12.794;2023-07-20T16:43:17;2.45;;;1.73;;
27758;SDS011;15148;48.972;12.794;2023-07-20T16:48:39;3.58;;;1.70;;
27758;SDS011;15148;48.972;12.794;2023-07-20T16:53:44;3.15;;;1.92;;
27758;SDS011;15148;48.972;12.794;2023-07-20T16:58:46;5.00;;;2.17;;
27758;SDS011;15148;48.972;12.794;2023-07-20T17:03:48;2.85;;;1.70;;
27758;SDS011;15148;48.972;12.794;2023-07-20T17:08:51;3.78;;;1.60;;
27758;SDS011;15148;48.972;12.794;2023-07-20T17:13:53;1.70;;;1.60;;
27758;SDS011;15148;48.972;12.794;2023-07-20T17:18:54;3.53;;;1.83;;
27758;SDS011;15148;48.972;12.794;2023-07-20T17:23:57;2.42;;;1.80;;
27758;SDS011;15148;48.972;12.794;2023-07-20T17:29:02;4.50;;;2.10;;
27758;SDS011;15148;48.972;12.794;2023-07-20T17:34:05;2.35;;;2.00;;
27758;SDS011;15148;48.972;12.794;2023-07-20T17:39:08;3.53;;;2.08;;
27758;SDS011;15148;48.972;12.794;2023-07-20T17:44:10;4.50;;;2.40;;
27758;SDS011;15148;48.972;12.794;2023-07-20T17:49:11;2.42;;;1.60;;
27758;SDS011;15148;48.972;12.794;2023-07-20T17:54:13;2.85;;;1.98;;
27758;SDS011;15148;48.972;12.794;2023-07-20T17:59:15;4.05;;;1.90;;
27758;SDS011;15148;48.972;12.794;2023-07-20T18:04:20;4.50;;;1.77;;
27758;SDS011;15148;48.972;12.794;2023-07-20T18:09:22;6.65;;;1.73;;
27758;SDS011;15148;48.972;12.794;2023-07-20T18:14:24;3.33;;;1.80;;
27758;SDS011;15148;48.972;12.794;2023-07-20T18:19:26;4.47;;;1.90;;
27758;SDS011;15148;48.972;12.794;2023-07-20T18:24:28;3.35;;;2.13;;
27758;SDS011;15148;48.972;12.794;2023-07-20T18:29:30;1.88;;;1.75;;
27758;SDS011;15148;48.972;12.794;2023-07-20T18:34:32;4.25;;;1.67;;
27758;SDS011;15148;48.972;12.794;2023-07-20T18:39:34;2.85;;;1.80;;
27758;SDS011;15148;48.972;12.794;2023-07-20T18:44:36;2.80;;;2.08;;
27758;SDS011;15148;48.972;12.794;2023-07-20T18:49:37;2.03;;;1.83;;
27758;SDS011;15148;48.972;12.794;2023-07-20T18:54:39;4.28;;;1.73;;
27758;SDS011;15148;48.972;12.794;2023-07-20T18:59:43;2.17;;;1.95;;
27758;SDS011;15148;48.972;12.794;2023-07-20T19:04:45;1.73;;;1.63;;
27758;SDS011;15148;48.972;12.794;2023-07-20T19:09:47;2.17;;;1.90;;
27758;SDS011;15148;48.972;12.794;2023-07-20T19:14:49;2.50;;;2.00;;
27758;SDS011;15148;48.972;12.794;2023-07-20T19:19:52;2.17;;;1.95;;
27758;SDS011;15148;48.972;12.794;2023-07-20T19:24:54;2.97;;;2.15;;
27758;SDS011;15148;48.972;12.794;2023-07-20T19:29:56;2.00;;;1.75;;
27758;SDS011;15148;48.972;12.794;2023-07-20T19:34:58;2.08;;;1.77;;
27758;SDS011;15148;48.972;12.794;2023-07-20T19:40:02;2.53;;;1.95;;
27758;SDS011;15148;48.972;12.794;2023-07-20T19:45:06;3.40;;;1.85;;
27758;SDS011;15148;48.972;12.794;2023-07-20T19:50:09;2.05;;;1.73;;
27758;SDS011;15148;48.972;12.794;2023-07-20T19:55:12;3.20;;;1.75;;
27758;SDS011;15148;48.972;12.794;2023-07-20T20:00:15;3.53;;;1.85;;
27758;SDS011;15148;48.972;12.794;2023-07-20T20:05:19;6.50;;;4.97;;
27758;SDS011;15148;48.972;12.794;2023-07-20T20:10:22;2.30;;;2.08;;
27758;SDS011;15148;48.972;12.794;2023-07-20T20:15:27;2.25;;;1.88;;
27758;SDS011;15148;48.972;12.794;2023-07-20T20:20:32;4.22;;;3.40;;
27758;SDS011;15148;48.972;12.794;2023-07-20T20:25:36;3.88;;;2.22;;
27758;SDS011;15148;48.972;12.794;2023-07-20T20:30:38;4.80;;;1.90;;
27758;SDS011;15148;48.972;12.794;2023-07-20T20:35:40;7.47;;;4.72;;
27758;SDS011;15148;48.972;12.794;2023-07-20T20:40:47;2.05;;;1.95;;
27758;SDS011;15148;48.972;12.794;2023-07-20T20:45:50;1.88;;;1.63;;
27758;SDS011;15148;48.972;12.794;2023-07-20T20:50:52;2.10;;;1.90;;
27758;SDS011;15148;48.972;12.794;2023-07-20T20:55:54;3.08;;;1.83;;
27758;SDS011;15148;48.972;12.794;2023-07-20T21:01:00;3.40;;;2.00;;
27758;SDS011;15148;48.972;12.794;2023-07-20T21:11:06;3.42;;;2.40;;
27758;SDS011;15148;48.972;12.794;2023-07-20T21:16:09;4.25;;;2.10;;
27758;SDS011;15148;48.972;12.794;2023-07-20T21:21:11;4.43;;;1.73;;
27758;SDS011;15148;48.972;12.794;2023-07-20T21:26:14;1.90;;;1.80;;
27758;SDS011;15148;48.972;12.794;2023-07-20T21:31:16;2.03;;;1.80;;
27758;SDS011;15148;48.972;12.794;2023-07-20T21:36:18;3.42;;;2.10;;
27758;SDS011;15148;48.972;12.794;2023-07-20T21:41:20;2.47;;;1.73;;
27758;SDS011;15148;48.972;12.794;2023-07-20T21:46:22;3.53;;;1.90;;
27758;SDS011;15148;48.972;12.794;2023-07-20T21:51:25;1.95;;;1.70;;
27758;SDS011;15148;48.972;12.794;2023-07-20T21:56:26;2.05;;;1.73;;
27758;SDS011;15148;48.972;12.794;2023-07-20T22:01:28;3.20;;;1.88;;
27758;SDS011;15148;48.972;12.794;2023-07-20T22:06:33;2.63;;;2.00;;
27758;SDS011;15148;48.972;12.794;2023-07-20T22:11:35;3.42;;;1.98;;
27758;SDS011;15148;48.972;12.794;2023-07-20T22:16:39;2.53;;;1.67;;
27758;SDS011;15148;48.972;12.794;2023-07-20T22:21:42;3.15;;;2.08;;
27758;SDS011;15148;48.972;12.794;2023-07-20T22:26:44;3.25;;;2.20;;
27758;SDS011;15148;48.972;12.794;2023-07-20T22:31:46;4.40;;;2.03;;
27758;SDS011;15148;48.972;12.794;2023-07-20T22:36:47;2.78;;;2.05;;
27758;SDS011;15148;48.972;12.794;2023-07-20T22:41:50;2.67;;;2.00;;
27758;SDS011;15148;48.972;12.794;2023-07-20T22:46:52;2.17;;;1.80;;
27758;SDS011;15148;48.972;12.794;2023-07-20T22:51:53;1.75;;;1.65;;
27758;SDS011;15148;48.972;12.794;2023-07-20T22:56:55;4.55;;;1.80;;
27758;SDS011;15148;48.972;12.794;2023-07-20T23:02:00;2.90;;;1.92;;
27758;SDS011;15148;48.972;12.794;2023-07-20T23:07:03;1.88;;;1.77;;
27758;SDS011;15148;48.972;12.794;2023-07-20T23:12:05;2.28;;;1.75;;
27758;SDS011;15148;48.972;12.794;2023-07-20T23:17:07;2.80;;;2.28;;
27758;SDS011;15148;48.972;12.794;2023-07-20T23:22:12;2.85;;;1.88;;
27758;SDS011;15148;48.972;12.794;2023-07-20T23:27:17;1.90;;;1.67;;
27758;SDS011;15148;48.972;12.794;2023-07-20T23:32:19;5.55;;;2.33;;
27758;SDS011;15148;48.972;12.794;2023-07-20T23:37:20;2.53;;;1.80;;
27758;SDS011;15148;48.972;12.794;2023-07-20T23:42:22;2.25;;;1.95;;
27758;SDS011;15148;48.972;12.794;2023-07-20T23:47:24;3.47;;;2.00;;
27758;SDS011;15148;48.972;12.794;2023-07-20T23:52:26;2.28;;;1.77;;
27758;SDS011;15148;48.972;12.794;2023-07-20T23:57:28;2.25;;;1.90;;
